createdAt,value
2018-09-10T00:00:47.631Z,6.20
2018-09-10T00:03:15.839Z,6.80
2018-09-10T00:05:44.046Z,6.57
2018-09-10T00:08:12.261Z,7.20
2018-09-10T00:10:40.588Z,7.10
2018-09-10T00:13:08.840Z,6.10
2018-09-10T00:15:37.050Z,6.83
2018-09-10T00:18:05.265Z,7.00
2018-09-10T00:20:33.511Z,8.37
2018-09-10T00:23:01.719Z,7.30
2018-09-10T00:25:29.922Z,8.03
2018-09-10T00:27:58.129Z,7.50
2018-09-10T00:30:26.386Z,9.37
2018-09-10T00:32:54.645Z,8.83
2018-09-10T00:35:22.855Z,7.83
2018-09-10T00:37:51.060Z,7.67
2018-09-10T00:40:19.266Z,7.67
2018-09-10T00:42:47.471Z,8.93
2018-09-10T00:45:15.697Z,8.40
2018-09-10T00:47:44.058Z,8.30
2018-09-10T00:50:12.263Z,8.67
2018-09-10T00:52:40.488Z,9.90
2018-09-10T00:55:08.738Z,9.43
2018-09-10T00:57:36.942Z,9.00
2018-09-10T01:00:05.708Z,9.33
2018-09-10T01:02:34.022Z,9.97
2018-09-10T01:05:02.296Z,10.33
2018-09-10T01:07:30.521Z,9.57
2018-09-10T01:09:58.735Z,9.13
2018-09-10T01:12:26.929Z,10.50
2018-09-10T01:14:55.157Z,9.43
2018-09-10T01:17:23.421Z,10.30
2018-09-10T01:19:51.661Z,10.00
2018-09-10T01:22:19.914Z,11.00
2018-09-10T01:24:48.117Z,10.60
2018-09-10T01:27:16.387Z,10.97
2018-09-10T01:29:44.592Z,9.90
2018-09-10T01:32:12.812Z,11.70
2018-09-10T01:34:46.496Z,9.93
2018-09-10T01:37:14.811Z,10.70
2018-09-10T01:39:43.175Z,11.87
2018-09-10T01:42:11.421Z,13.07
2018-09-10T01:44:39.681Z,11.87
2018-09-10T01:47:07.957Z,12.90
2018-09-10T01:49:36.185Z,11.47
2018-09-10T01:52:04.488Z,11.33
2018-09-10T01:54:32.712Z,12.17
2018-09-10T01:57:00.987Z,11.57
2018-09-10T01:59:29.258Z,11.00
2018-09-10T02:01:57.513Z,11.43
2018-09-10T02:04:25.789Z,10.80
2018-09-10T02:06:54.022Z,10.90
2018-09-10T02:09:22.281Z,10.70
2018-09-10T02:11:50.533Z,11.03
2018-09-10T02:14:18.789Z,11.37
2018-09-10T02:16:47.017Z,11.23
2018-09-10T02:19:15.025Z,10.60
2018-09-10T02:21:43.229Z,10.70
2018-09-10T02:24:11.439Z,11.37
2018-09-10T02:26:39.722Z,10.77
2018-09-10T02:29:08.037Z,11.20
2018-09-10T02:31:36.322Z,10.20
2018-09-10T02:34:04.538Z,10.53
2018-09-10T02:36:32.750Z,11.30
2018-09-10T02:39:00.997Z,10.53
2018-09-10T02:41:29.261Z,10.83
2018-09-10T02:43:57.498Z,11.00
2018-09-10T02:46:25.804Z,11.83
2018-09-10T02:48:54.001Z,12.27
2018-09-10T02:51:22.265Z,10.60
2018-09-10T02:53:50.502Z,10.80
2018-09-10T02:56:18.774Z,11.87
2018-09-10T02:58:47.005Z,12.40
2018-09-10T03:01:15.235Z,11.63
2018-09-10T03:03:43.447Z,10.10
2018-09-10T03:06:11.673Z,11.20
2018-09-10T03:08:39.877Z,11.20
2018-09-10T03:11:08.090Z,9.80
2018-09-10T03:13:36.302Z,10.27
2018-09-10T03:16:04.555Z,10.20
2018-09-10T03:18:32.770Z,10.37
2018-09-10T03:21:01.029Z,10.27
2018-09-10T03:23:29.242Z,11.07
2018-09-10T03:25:57.494Z,10.10
2018-09-10T03:28:25.723Z,12.23
2018-09-10T03:30:53.936Z,10.33
2018-09-10T03:33:22.238Z,11.07
2018-09-10T03:35:50.526Z,11.53
2018-09-10T03:38:18.737Z,9.90
2018-09-10T03:40:46.961Z,9.57
2018-09-10T03:43:15.232Z,10.93
2018-09-10T03:45:43.489Z,11.03
2018-09-10T03:48:11.741Z,10.97
2018-09-10T03:50:39.961Z,11.57
2018-09-10T03:53:08.177Z,10.97
2018-09-10T03:55:36.449Z,10.97
2018-09-10T03:58:04.659Z,10.83
2018-09-10T04:00:32.870Z,10.23
2018-09-10T04:03:01.205Z,9.87
2018-09-10T04:05:29.414Z,10.67
2018-09-10T04:07:57.664Z,9.87
2018-09-10T04:10:25.953Z,9.80
2018-09-10T04:12:54.205Z,9.80
2018-09-10T04:15:22.406Z,9.20
2018-09-10T04:17:50.615Z,7.70
2018-09-10T04:20:18.854Z,7.67
2018-09-10T04:22:47.126Z,7.80
2018-09-10T04:25:15.332Z,7.30
2018-09-10T04:27:43.542Z,7.77
2018-09-10T04:30:14.430Z,7.00
2018-09-10T04:32:42.895Z,6.23
2018-09-10T04:35:11.816Z,6.40
2018-09-10T04:37:40.457Z,5.27
2018-09-10T04:40:08.662Z,5.20
2018-09-10T04:42:36.926Z,4.90
2018-09-10T04:45:05.603Z,4.27
2018-09-10T04:47:33.857Z,4.33
2018-09-10T04:50:02.346Z,3.77
2018-09-10T04:52:30.566Z,4.80
2018-09-10T04:54:58.837Z,3.97
2018-09-10T04:57:27.113Z,3.43
2018-09-10T04:59:55.361Z,3.93
2018-09-10T05:02:23.621Z,4.03
2018-09-10T05:04:51.818Z,3.63
2018-09-10T05:07:20.021Z,3.90
2018-09-10T05:09:48.319Z,3.73
2018-09-10T05:12:16.470Z,3.70
2018-09-10T05:14:44.690Z,4.50
2018-09-10T05:17:12.935Z,4.80
2018-09-10T05:19:41.237Z,3.90
2018-09-10T05:22:09.708Z,4.30
2018-09-10T05:24:37.723Z,3.80
2018-09-10T05:27:05.924Z,4.00
2018-09-10T05:29:34.129Z,4.60
2018-09-10T05:32:02.389Z,4.57
2018-09-10T05:34:30.659Z,3.60
2018-09-10T05:36:59.001Z,3.80
2018-09-10T05:39:27.290Z,3.80
2018-09-10T05:41:55.525Z,4.77
2018-09-10T05:44:23.799Z,4.43
2018-09-10T05:46:52.113Z,4.30
2018-09-10T05:49:20.399Z,4.57
2018-09-10T05:51:48.654Z,3.97
2018-09-10T05:54:16.870Z,4.50
2018-09-10T05:56:45.145Z,4.40
2018-09-10T05:59:13.429Z,4.30
2018-09-10T06:01:41.670Z,4.40
2018-09-10T06:04:10.001Z,3.90
2018-09-10T06:06:38.299Z,3.70
2018-09-10T06:09:07.182Z,3.73
2018-09-10T06:11:35.390Z,3.67
2018-09-10T06:14:03.830Z,3.33
2018-09-10T06:16:32.125Z,3.90
2018-09-10T06:19:00.585Z,3.03
2018-09-10T06:21:28.793Z,3.57
2018-09-10T06:23:57.854Z,3.03
2018-09-10T06:26:26.128Z,2.63
2018-09-10T06:28:54.467Z,3.17
2018-09-10T06:31:22.693Z,2.63
2018-09-10T06:33:51.170Z,2.83
2018-09-10T06:36:19.381Z,3.37
2018-09-10T06:38:47.578Z,2.77
2018-09-10T06:41:15.795Z,2.43
2018-09-10T06:43:44.068Z,2.80
2018-09-10T06:46:12.324Z,2.97
2018-09-10T06:48:40.619Z,3.53
2018-09-10T06:51:08.833Z,3.03
2018-09-10T06:53:37.068Z,3.70
2018-09-10T06:56:05.855Z,2.70
2018-09-10T06:58:34.976Z,3.03
2018-09-10T07:01:03.205Z,3.07
2018-09-10T07:03:31.461Z,2.40
2018-09-10T07:05:59.754Z,3.63
2018-09-10T07:08:28.414Z,2.80
2018-09-10T07:10:56.697Z,2.93
2018-09-10T07:13:25.547Z,3.10
2018-09-10T07:15:54.033Z,2.90
2018-09-10T07:18:22.488Z,2.97
2018-09-10T07:20:50.858Z,2.90
2018-09-10T07:23:19.185Z,2.53
2018-09-10T07:25:47.477Z,2.60
2018-09-10T07:28:15.686Z,3.10
2018-09-10T07:30:43.929Z,2.47
2018-09-10T07:33:12.343Z,2.50
2018-09-10T07:35:41.173Z,1.80
2018-09-10T07:38:10.390Z,1.77
2018-09-10T07:40:38.592Z,2.00
2018-09-10T07:43:06.801Z,2.30
2018-09-10T07:45:35.077Z,2.30
2018-09-10T07:48:03.830Z,2.57
2018-09-10T07:50:32.133Z,2.40
2018-09-10T07:53:00.391Z,1.87
2018-09-10T07:55:28.645Z,1.60
2018-09-10T07:57:57.905Z,1.70
2018-09-10T08:00:26.138Z,1.60
2018-09-10T08:02:54.440Z,1.63
2018-09-10T08:05:22.665Z,1.77
2018-09-10T08:07:51.089Z,1.83
2018-09-10T08:10:19.289Z,2.00
2018-09-10T08:12:47.738Z,1.87
2018-09-10T08:15:16.251Z,2.13
2018-09-10T08:17:44.463Z,1.97
2018-09-10T08:20:12.910Z,2.03
2018-09-10T08:22:41.117Z,1.63
2018-09-10T08:25:09.484Z,2.13
2018-09-10T08:27:37.686Z,1.70
2018-09-10T08:30:06.740Z,1.63
2018-09-10T08:32:34.976Z,1.63
2018-09-10T08:35:03.274Z,1.37
2018-09-10T08:37:31.498Z,2.03
2018-09-10T08:39:59.693Z,1.80
2018-09-10T08:42:27.925Z,1.63
2018-09-10T08:44:56.278Z,1.73
2018-09-10T08:47:24.491Z,1.87
2018-09-10T08:49:52.777Z,1.47
2018-09-10T08:52:21.014Z,1.77
2018-09-10T08:54:49.427Z,2.27
2018-09-10T08:57:17.477Z,1.67
2018-09-10T08:59:45.836Z,1.77
2018-09-10T09:02:14.050Z,2.07
2018-09-10T09:04:42.334Z,2.27
2018-09-10T09:07:10.534Z,1.40
2018-09-10T09:09:38.762Z,1.93
2018-09-10T09:12:07.073Z,1.60
2018-09-10T09:14:35.301Z,1.87
2018-09-10T09:17:03.627Z,1.50
2018-09-10T09:19:31.978Z,1.40
2018-09-10T09:22:00.197Z,1.90
2018-09-10T09:24:28.534Z,1.70
2018-09-10T09:26:56.829Z,1.60
2018-09-10T09:29:25.101Z,1.90
2018-09-10T09:31:54.503Z,1.80
2018-09-10T09:34:22.774Z,1.70
2018-09-10T09:36:56.480Z,2.00
2018-09-10T09:39:30.224Z,1.70
2018-09-10T09:42:03.654Z,1.67
2018-09-10T09:44:37.407Z,1.40
2018-09-10T09:47:05.654Z,1.57
2018-09-10T09:49:33.857Z,1.40
2018-09-10T09:52:02.067Z,1.30
2018-09-10T09:54:30.267Z,1.50
2018-09-10T09:56:58.465Z,1.57
2018-09-10T09:59:26.708Z,2.43
2018-09-10T10:02:00.317Z,1.90
2018-09-10T10:04:28.629Z,2.10
2018-09-10T10:06:56.773Z,1.47
2018-09-10T10:09:25.026Z,1.97
2018-09-10T10:11:53.254Z,1.40
2018-09-10T10:14:21.619Z,1.60
2018-09-10T10:16:49.809Z,1.00
2018-09-10T10:19:18.017Z,1.40
2018-09-10T10:21:46.619Z,2.20
2018-09-10T10:24:14.885Z,1.60
2018-09-10T10:26:43.085Z,2.97
2018-09-10T10:29:11.333Z,1.90
2018-09-10T10:31:39.544Z,1.67
2018-09-10T10:34:07.942Z,1.97
2018-09-10T10:36:36.161Z,1.57
2018-09-10T10:39:05.915Z,1.40
2018-09-10T10:41:34.153Z,1.40
2018-09-10T10:44:02.473Z,1.60
2018-09-10T10:46:30.750Z,1.90
2018-09-10T10:48:58.978Z,1.80
2018-09-10T10:51:27.309Z,1.80
2018-09-10T10:53:55.701Z,1.30
2018-09-10T10:56:23.932Z,1.60
2018-09-10T10:58:52.170Z,1.50
2018-09-10T11:01:20.441Z,1.23
2018-09-10T11:03:48.645Z,1.43
2018-09-10T11:06:16.871Z,1.30
2018-09-10T11:08:45.069Z,1.50
2018-09-10T11:11:13.273Z,2.07
2018-09-10T11:13:41.529Z,2.87
2018-09-10T11:16:09.741Z,1.53
2018-09-10T11:18:37.967Z,1.63
2018-09-10T11:21:06.219Z,1.63
2018-09-10T11:23:34.408Z,1.70
2018-09-10T11:26:02.622Z,1.60
2018-09-10T11:28:30.869Z,1.80
2018-09-10T11:30:59.138Z,2.27
2018-09-10T11:33:27.369Z,2.23
2018-09-10T11:35:55.594Z,1.60
2018-09-10T11:38:23.894Z,1.80
2018-09-10T11:40:52.170Z,1.50
2018-09-10T11:43:20.657Z,1.70
2018-09-10T11:45:48.913Z,1.90
2018-09-10T11:48:17.318Z,1.97
2018-09-10T11:50:45.601Z,1.70
2018-09-10T11:53:13.829Z,2.40
2018-09-10T11:55:42.130Z,1.80
2018-09-10T11:58:10.370Z,2.50
2018-09-10T12:00:39.125Z,5.73
2018-09-10T12:03:07.355Z,2.70
2018-09-10T12:05:35.706Z,1.93
2018-09-10T12:08:03.961Z,4.10
2018-09-10T12:10:32.235Z,1.53
2018-09-10T12:13:00.461Z,2.10
2018-09-10T12:15:29.427Z,1.53
2018-09-10T12:17:57.670Z,1.70
2018-09-10T12:20:25.924Z,2.43
2018-09-10T12:22:54.138Z,1.80
2018-09-10T12:25:22.386Z,1.80
2018-09-10T12:27:50.583Z,2.00
2018-09-10T12:30:18.841Z,1.57
2018-09-10T12:32:47.034Z,1.60
2018-09-10T12:35:15.294Z,2.10
2018-09-10T12:37:43.506Z,2.60
2018-09-10T12:40:11.746Z,1.83
2018-09-10T12:42:39.963Z,3.10
2018-09-10T12:45:08.269Z,2.20
2018-09-10T12:47:36.746Z,2.13
2018-09-10T12:50:05.118Z,1.83
2018-09-10T12:52:33.369Z,1.50
2018-09-10T12:55:01.594Z,1.60
2018-09-10T12:57:29.794Z,1.40
2018-09-10T12:59:58.026Z,1.90
2018-09-10T13:02:26.269Z,1.93
2018-09-10T13:04:54.522Z,1.70
2018-09-10T13:07:22.739Z,1.97
2018-09-10T13:09:50.984Z,2.87
2018-09-10T13:12:19.214Z,2.20
2018-09-10T13:14:47.498Z,3.20
2018-09-10T13:17:15.760Z,2.00
2018-09-10T13:19:44.434Z,2.13
2018-09-10T13:22:12.661Z,3.30
2018-09-10T13:24:40.878Z,1.87
2018-09-10T13:27:09.166Z,1.90
2018-09-10T13:29:37.377Z,1.57
2018-09-10T13:32:05.638Z,1.23
2018-09-10T13:34:33.875Z,1.60
2018-09-10T13:37:02.823Z,1.87
2018-09-10T13:39:31.148Z,1.60
2018-09-10T13:41:59.478Z,1.63
2018-09-10T13:44:27.681Z,1.30
2018-09-10T13:46:56.053Z,1.57
2018-09-10T13:49:24.305Z,1.73
2018-09-10T13:51:52.501Z,1.60
2018-09-10T13:54:20.721Z,1.40
2018-09-10T13:56:48.949Z,1.93
2018-09-10T13:59:17.222Z,1.30
2018-09-10T14:01:45.490Z,1.53
2018-09-10T14:04:13.729Z,1.93
2018-09-10T14:06:41.949Z,1.60
2018-09-10T14:09:10.177Z,1.23
2018-09-10T14:11:38.579Z,1.80
2018-09-10T14:14:07.451Z,1.70
2018-09-10T14:16:35.777Z,1.37
2018-09-10T14:19:03.993Z,1.50
2018-09-10T14:21:32.197Z,2.17
2018-09-10T14:24:00.523Z,1.43
2018-09-10T14:26:28.886Z,2.23
2018-09-10T14:28:57.098Z,1.67
2018-09-10T14:31:25.361Z,1.50
2018-09-10T14:33:53.550Z,1.77
2018-09-10T14:36:21.876Z,2.23
2018-09-10T14:38:50.165Z,1.83
2018-09-10T14:41:18.454Z,2.20
2018-09-10T14:43:46.649Z,2.10
2018-09-10T14:46:14.869Z,1.80
2018-09-10T14:48:43.114Z,1.70
2018-09-10T14:51:11.372Z,1.80
2018-09-10T14:53:39.577Z,1.73
2018-09-10T14:56:07.802Z,1.50
2018-09-10T14:58:36.034Z,1.87
2018-09-10T15:01:04.276Z,1.70
2018-09-10T15:03:32.537Z,2.10
2018-09-10T15:06:00.822Z,1.77
2018-09-10T15:08:28.969Z,1.80
2018-09-10T15:10:57.176Z,2.10
2018-09-10T15:13:25.515Z,1.70
2018-09-10T15:15:53.786Z,2.33
2018-09-10T15:18:22.132Z,1.90
2018-09-10T15:20:50.388Z,2.33
2018-09-10T15:23:18.625Z,2.30
2018-09-10T15:25:46.936Z,1.90
2018-09-10T15:28:15.130Z,2.23
2018-09-10T15:30:43.357Z,2.20
2018-09-10T15:33:11.606Z,2.10
2018-09-10T15:35:40.326Z,1.90
2018-09-10T15:38:08.612Z,1.90
2018-09-10T15:40:36.912Z,2.00
2018-09-10T15:43:05.119Z,2.40
2018-09-10T15:45:33.319Z,2.53
2018-09-10T15:48:01.850Z,2.40
2018-09-10T15:50:30.088Z,2.20
2018-09-10T15:52:58.689Z,1.97
2018-09-10T15:55:27.249Z,2.90
2018-09-10T15:57:56.587Z,2.30
2018-09-10T16:00:25.352Z,3.20
2018-09-10T16:02:54.141Z,2.37
2018-09-10T16:05:23.481Z,2.70
2018-09-10T16:07:52.974Z,2.50
2018-09-10T16:10:22.006Z,2.33
2018-09-10T16:12:50.236Z,2.80
2018-09-10T16:15:18.544Z,3.00
2018-09-10T16:17:53.519Z,3.13
2018-09-10T16:20:21.770Z,3.30
2018-09-10T16:22:50.070Z,2.40
2018-09-10T16:25:18.317Z,2.40
2018-09-10T16:27:46.528Z,3.07
2018-09-10T16:30:14.867Z,2.67
2018-09-10T16:32:43.138Z,3.07
2018-09-10T16:35:11.370Z,3.00
2018-09-10T16:37:39.609Z,2.33
2018-09-10T16:40:07.898Z,2.40
2018-09-10T16:42:36.204Z,2.17
2018-09-10T16:45:04.742Z,2.63
2018-09-10T16:47:32.991Z,2.43
2018-09-10T16:50:01.265Z,2.70
2018-09-10T16:52:29.545Z,2.20
2018-09-10T16:54:57.836Z,2.17
2018-09-10T16:57:26.045Z,1.90
2018-09-10T16:59:54.345Z,2.50
2018-09-10T17:02:23.401Z,2.63
2018-09-10T17:04:51.621Z,2.40
2018-09-10T17:07:19.949Z,2.20
2018-09-10T17:09:48.198Z,2.27
2018-09-10T17:12:16.567Z,2.83
2018-09-10T17:14:44.850Z,1.90
2018-09-10T17:17:13.085Z,2.63
2018-09-10T17:19:41.333Z,2.47
2018-09-10T17:22:09.669Z,2.90
2018-09-10T17:24:37.921Z,2.67
2018-09-10T17:27:06.211Z,2.40
2018-09-10T17:29:34.415Z,2.00
2018-09-10T17:32:03.300Z,2.20
2018-09-10T17:34:32.638Z,2.50
2018-09-10T17:37:00.896Z,2.80
2018-09-10T17:39:29.171Z,2.30
2018-09-10T17:41:57.400Z,2.40
2018-09-10T17:44:25.629Z,2.37
2018-09-10T17:46:53.958Z,2.53
2018-09-10T17:49:22.233Z,1.87
2018-09-10T17:51:50.654Z,2.40
2018-09-10T17:54:18.942Z,2.00
2018-09-10T17:56:47.186Z,2.80
2018-09-10T17:59:15.391Z,2.40
2018-09-10T18:01:43.661Z,3.00
2018-09-10T18:04:11.910Z,2.77
2018-09-10T18:06:40.170Z,2.80
2018-09-10T18:09:09.826Z,2.27
2018-09-10T18:11:38.105Z,2.83
2018-09-10T18:14:06.350Z,2.33
2018-09-10T18:16:34.695Z,2.87
2018-09-10T18:19:03.002Z,2.40
2018-09-10T18:21:31.953Z,3.20
2018-09-10T18:24:00.208Z,2.40
2018-09-10T18:26:28.446Z,2.60
2018-09-10T18:28:56.721Z,3.20
2018-09-10T18:31:24.954Z,2.53
2018-09-10T18:33:53.198Z,3.00
2018-09-10T18:36:21.503Z,2.20
2018-09-10T18:38:50.034Z,5.43
2018-09-10T18:41:18.259Z,2.73
2018-09-10T18:43:46.530Z,2.60
2018-09-10T18:46:14.883Z,2.87
2018-09-10T18:48:43.394Z,3.23
2018-09-10T18:51:11.634Z,3.00
2018-09-10T18:53:39.889Z,3.10
2018-09-10T18:56:08.313Z,2.90
2018-09-10T18:58:36.566Z,3.67
2018-09-10T19:01:04.857Z,2.70
2018-09-10T19:03:33.047Z,3.13
2018-09-10T19:06:01.552Z,2.80
2018-09-10T19:08:29.769Z,3.00
2018-09-10T19:10:58.006Z,2.80
2018-09-10T19:13:26.222Z,3.20
2018-09-10T19:15:54.494Z,3.33
2018-09-10T19:18:26.929Z,2.70
2018-09-10T19:20:55.153Z,3.47
2018-09-10T19:23:23.431Z,2.60
2018-09-10T19:25:51.701Z,3.30
2018-09-10T19:28:19.906Z,3.53
2018-09-10T19:30:48.110Z,3.00
2018-09-10T19:33:16.398Z,3.20
2018-09-10T19:35:44.630Z,3.67
2018-09-10T19:38:12.850Z,3.00
2018-09-10T19:40:41.105Z,3.20
2018-09-10T19:43:09.355Z,3.07
2018-09-10T19:45:37.574Z,2.97
2018-09-10T19:48:05.817Z,3.30
2018-09-10T19:50:34.072Z,2.90
2018-09-10T19:53:02.326Z,3.03
2018-09-10T19:55:30.579Z,3.87
2018-09-10T19:57:58.822Z,3.40
2018-09-10T20:00:27.062Z,3.67
2018-09-10T20:02:55.263Z,3.10
2018-09-10T20:05:23.594Z,3.00
2018-09-10T20:07:51.788Z,3.03
2018-09-10T20:10:20.006Z,3.80
2018-09-10T20:12:48.278Z,3.40
2018-09-10T20:15:16.613Z,3.20
2018-09-10T20:17:44.809Z,3.37
2018-09-10T20:20:13.057Z,3.50
2018-09-10T20:22:41.269Z,3.10
2018-09-10T20:25:09.581Z,3.30
2018-09-10T20:27:37.781Z,4.43
2018-09-10T20:30:06.356Z,3.50
2018-09-10T20:32:34.632Z,3.40
2018-09-10T20:35:02.874Z,3.73
2018-09-10T20:37:31.078Z,3.10
2018-09-10T20:39:59.386Z,3.67
2018-09-10T20:42:27.618Z,2.97
2018-09-10T20:44:55.918Z,3.30
2018-09-10T20:47:24.156Z,3.50
2018-09-10T20:49:52.778Z,3.20
2018-09-10T20:52:21.048Z,4.50
2018-09-10T20:54:49.246Z,3.67
2018-09-10T20:57:17.553Z,3.60
2018-09-10T20:59:45.801Z,3.70
2018-09-10T21:02:14.053Z,3.83
2018-09-10T21:04:42.422Z,3.97
2018-09-10T21:07:10.722Z,3.90
2018-09-10T21:09:38.989Z,3.97
2018-09-10T21:12:07.257Z,4.03
2018-09-10T21:14:35.458Z,4.30
2018-09-10T21:17:03.738Z,4.40
2018-09-10T21:19:31.967Z,4.20
2018-09-10T21:22:00.205Z,4.50
2018-09-10T21:24:28.421Z,3.30
2018-09-10T21:26:56.674Z,3.50
2018-09-10T21:29:24.884Z,4.23
2018-09-10T21:31:53.158Z,3.93
2018-09-10T21:34:21.389Z,4.33
2018-09-10T21:36:49.652Z,4.43
2018-09-10T21:39:17.905Z,4.27
2018-09-10T21:41:46.142Z,4.17
2018-09-10T21:44:14.387Z,4.20
2018-09-10T21:46:42.633Z,3.70
2018-09-10T21:49:10.929Z,4.27
2018-09-10T21:51:40.277Z,3.80
2018-09-10T21:54:08.505Z,4.03
2018-09-10T21:56:36.818Z,4.10
2018-09-10T21:59:05.110Z,3.47
2018-09-10T22:01:33.314Z,3.60
2018-09-10T22:04:01.508Z,3.47
2018-09-10T22:06:29.817Z,3.20
2018-09-10T22:08:58.053Z,3.57
2018-09-10T22:11:27.132Z,3.77
2018-09-10T22:13:55.325Z,3.57
2018-09-10T22:16:23.629Z,3.30
2018-09-10T22:18:51.838Z,3.60
2018-09-10T22:21:20.082Z,3.37
2018-09-10T22:23:48.290Z,3.30
2018-09-10T22:26:16.772Z,3.97
2018-09-10T22:28:45.006Z,3.40
2018-09-10T22:31:13.283Z,3.50
2018-09-10T22:33:41.506Z,3.60
2018-09-10T22:36:09.759Z,3.30
2018-09-10T22:38:38.057Z,4.17
2018-09-10T22:41:06.293Z,3.60
2018-09-10T22:43:34.478Z,3.43
2018-09-10T22:46:02.730Z,3.13
2018-09-10T22:48:30.968Z,3.60
2018-09-10T22:50:59.234Z,3.70
2018-09-10T22:53:27.414Z,3.43
2018-09-10T22:55:55.662Z,3.70
2018-09-10T22:58:23.907Z,3.60
2018-09-10T23:00:52.294Z,3.53
2018-09-10T23:03:20.535Z,3.90
2018-09-10T23:05:48.734Z,3.57
2018-09-10T23:08:16.924Z,3.70
2018-09-10T23:10:45.177Z,4.00
2018-09-10T23:13:13.474Z,4.20
2018-09-10T23:15:41.723Z,4.20
2018-09-10T23:18:09.915Z,4.10
2018-09-10T23:20:38.143Z,3.80
2018-09-10T23:23:06.353Z,4.40
2018-09-10T23:25:34.557Z,4.00
2018-09-10T23:28:02.759Z,3.80
2018-09-10T23:30:31.037Z,4.20
2018-09-10T23:32:59.290Z,3.80
2018-09-10T23:35:27.477Z,4.90
2018-09-10T23:37:55.731Z,4.60
2018-09-10T23:40:23.929Z,4.63
2018-09-10T23:42:52.191Z,4.00
2018-09-10T23:45:20.389Z,4.17
2018-09-10T23:47:48.697Z,4.10
2018-09-10T23:50:16.989Z,3.80
2018-09-10T23:52:45.194Z,4.87
2018-09-10T23:55:13.437Z,3.43
2018-09-10T23:57:41.674Z,3.77
